createdAt,value
2023-03-20T00:00:35.942Z,100760.28
2023-03-20T00:05:59.380Z,100755.13
2023-03-20T00:11:06.066Z,100754.19
2023-03-20T00:16:13.896Z,100752.50
2023-03-20T00:21:22.523Z,100745.66
2023-03-20T00:26:35.101Z,100749.00
2023-03-20T00:31:42.646Z,100737.78
2023-03-20T00:36:51.277Z,100740.19
2023-03-20T00:41:59.901Z,100734.09
2023-03-20T00:47:13.817Z,100734.16
2023-03-20T00:52:23.409Z,100740.25
2023-03-20T00:57:37.811Z,100709.22
2023-03-20T01:02:46.285Z,100719.56
2023-03-20T01:07:54.384Z,100731.28
2023-03-20T01:13:04.186Z,100717.41
2023-03-20T01:18:15.317Z,100729.56
2023-03-20T01:23:27.055Z,100715.00
2023-03-20T01:28:34.676Z,100714.06
2023-03-20T01:33:41.593Z,100718.19
2023-03-20T01:38:53.386Z,100713.78
2023-03-20T01:44:00.135Z,100713.81
2023-03-20T01:49:32.591Z,100715.47
2023-03-20T01:54:43.654Z,100718.63
2023-03-20T01:59:58.536Z,100721.41
2023-03-20T02:05:10.277Z,100721.28
2023-03-20T02:10:20.098Z,100712.50
2023-03-20T02:15:37.838Z,100715.16
2023-03-20T02:21:53.471Z,100721.97
2023-03-20T02:27:17.278Z,100711.59
2023-03-20T02:33:13.135Z,100715.81
2023-03-20T02:39:02.672Z,100712.44
2023-03-20T02:44:16.386Z,100707.38
2023-03-20T02:49:47.415Z,100707.25
2023-03-20T02:55:07.946Z,100701.84
2023-03-20T03:00:25.465Z,100699.16
2023-03-20T03:05:39.854Z,100709.63
2023-03-20T03:10:52.857Z,100708.69
2023-03-20T03:16:07.237Z,100703.50
2023-03-20T03:21:20.275Z,100700.91
2023-03-20T03:26:36.160Z,100693.97
2023-03-20T03:31:43.457Z,100699.19
2023-03-20T03:37:01.953Z,100695.69
2023-03-20T03:42:17.642Z,100686.06
2023-03-20T03:47:31.419Z,100687.03
2023-03-20T03:52:40.521Z,100677.00
2023-03-20T03:57:51.247Z,100671.06
2023-03-20T04:03:00.316Z,100678.09
2023-03-20T04:08:08.594Z,100687.63
2023-03-20T04:13:16.843Z,100682.47
2023-03-20T04:18:23.630Z,100674.75
2023-03-20T04:23:30.252Z,100677.06
2023-03-20T04:28:38.746Z,100684.78
2023-03-20T04:34:04.290Z,100670.31
2023-03-20T04:39:10.910Z,100663.56
2023-03-20T04:44:19.992Z,100673.91
2023-03-20T04:49:29.178Z,100672.94
2023-03-20T04:54:36.469Z,100674.56
2023-03-20T04:59:44.870Z,100679.69
2023-03-20T05:04:52.221Z,100682.44
2023-03-20T05:09:58.908Z,100680.84
2023-03-20T05:15:08.703Z,100677.38
2023-03-20T05:20:52.775Z,100675.00
2023-03-20T05:26:19.108Z,100683.72
2023-03-20T05:31:49.943Z,100675.34
2023-03-20T05:37:15.378Z,100680.66
2023-03-20T05:42:42.186Z,100678.22
2023-03-20T05:48:08.993Z,100683.47
2023-03-20T05:53:20.778Z,100671.53
2023-03-20T05:58:29.695Z,100678.44
2023-03-20T06:04:08.839Z,100675.06
2023-03-20T06:09:44.620Z,100682.03
2023-03-20T06:14:53.072Z,100693.25
2023-03-20T06:20:02.034Z,100696.75
2023-03-20T06:25:10.107Z,100698.53
2023-03-20T06:30:21.451Z,100707.19
2023-03-20T06:35:32.498Z,100712.44
2023-03-20T06:40:39.096Z,100711.66
2023-03-20T06:45:46.116Z,100709.22
2023-03-20T06:51:01.737Z,100711.03
2023-03-20T06:56:15.123Z,100712.09
2023-03-20T07:01:21.465Z,100716.56
2023-03-20T07:06:29.404Z,100709.81
2023-03-20T07:11:35.919Z,100703.09
2023-03-20T07:16:42.654Z,100712.63
2023-03-20T07:21:50.735Z,100700.63
2023-03-20T07:26:57.688Z,100702.38
2023-03-20T07:32:05.196Z,100703.28
2023-03-20T07:37:20.472Z,100704.09
2023-03-20T07:42:40.407Z,100705.78
2023-03-20T07:47:53.142Z,100701.44
2023-03-20T07:53:01.402Z,100691.81
2023-03-20T07:58:08.766Z,100691.69
2023-03-20T08:03:15.259Z,100693.19
2023-03-20T08:08:23.491Z,100693.84
2023-03-20T08:13:29.921Z,100695.38
2023-03-20T08:18:36.435Z,100689.94
2023-03-20T08:23:44.518Z,100675.81
2023-03-20T08:28:52.263Z,100674.34
2023-03-20T08:33:59.380Z,100680.00
2023-03-20T08:39:08.611Z,100673.63
2023-03-20T08:44:15.455Z,100667.44
2023-03-20T08:49:22.145Z,100671.25
2023-03-20T08:54:31.129Z,100677.88
2023-03-20T08:59:37.924Z,100676.94
2023-03-20T09:04:44.479Z,100688.00
2023-03-20T09:09:52.342Z,100692.25
2023-03-20T09:14:58.792Z,100694.63
2023-03-20T09:20:06.684Z,100684.72
2023-03-20T09:25:14.966Z,100691.47
2023-03-20T09:30:21.672Z,100686.09
2023-03-20T09:35:28.058Z,100685.94
2023-03-20T09:40:51.687Z,100677.94
2023-03-20T09:46:12.068Z,100690.59
2023-03-20T09:51:31.754Z,100685.41
2023-03-20T09:56:39.856Z,100683.50
2023-03-20T10:01:52.425Z,100681.47
2023-03-20T10:06:59.225Z,100689.91
2023-03-20T10:12:43.151Z,100682.94
2023-03-20T10:17:58.977Z,100683.63
2023-03-20T10:23:09.465Z,100686.75
2023-03-20T10:28:23.672Z,100679.56
2023-03-20T10:33:47.286Z,100677.41
2023-03-20T10:39:01.088Z,100671.78
2023-03-20T10:44:18.481Z,100671.53
2023-03-20T10:49:35.439Z,100662.81
2023-03-20T10:54:46.406Z,100668.88
2023-03-20T10:59:58.649Z,100656.66
2023-03-20T11:05:12.958Z,100658.84
2023-03-20T11:10:19.634Z,100655.06
2023-03-20T11:15:30.398Z,100647.69
2023-03-20T11:20:41.195Z,100650.78
2023-03-20T11:25:54.845Z,100640.59
2023-03-20T11:31:07.261Z,100644.44
2023-03-20T11:36:26.625Z,100641.16
2023-03-20T11:41:35.294Z,100643.41
2023-03-20T11:46:44.400Z,100638.19
2023-03-20T11:51:50.961Z,100638.16
2023-03-20T11:56:59.664Z,100634.44
2023-03-20T12:02:24.528Z,100628.03
2023-03-20T12:07:37.029Z,100622.38
2023-03-20T12:12:51.046Z,100622.13
2023-03-20T12:18:03.228Z,100616.63
2023-03-20T12:23:16.264Z,100616.53
2023-03-20T12:28:29.764Z,100615.50
2023-03-20T12:33:51.116Z,100621.41
2023-03-20T12:38:57.687Z,100610.44
2023-03-20T12:44:35.561Z,100614.91
2023-03-20T12:49:56.313Z,100614.81
2023-03-20T12:55:26.199Z,100616.41
2023-03-20T13:00:39.297Z,100616.50
2023-03-20T13:05:54.443Z,100617.34
2023-03-20T13:11:16.185Z,100613.69
2023-03-20T13:16:36.924Z,100621.56
2023-03-20T13:21:57.018Z,100606.22
2023-03-20T13:27:16.412Z,100608.84
2023-03-20T13:32:39.879Z,100607.16
2023-03-20T13:37:54.000Z,100613.47
2023-03-20T13:43:09.971Z,100609.47
2023-03-20T13:48:30.796Z,100606.41
2023-03-20T13:53:54.813Z,100612.66
2023-03-20T13:59:36.437Z,100606.66
2023-03-20T14:04:43.609Z,100613.00
2023-03-20T14:09:55.429Z,100612.25
2023-03-20T14:15:05.575Z,100605.34
2023-03-20T14:20:25.228Z,100617.59
2023-03-20T14:25:43.921Z,100618.63
2023-03-20T14:30:51.975Z,100621.50
2023-03-20T14:36:23.904Z,100626.88
2023-03-20T14:41:51.224Z,100623.59
2023-03-20T14:47:04.763Z,100621.13
2023-03-20T14:52:39.527Z,100623.22
2023-03-20T14:57:56.641Z,100621.00
2023-03-20T15:03:11.592Z,100623.09
2023-03-20T15:08:25.854Z,100620.00
2023-03-20T15:13:36.288Z,100621.13
2023-03-20T15:18:45.492Z,100609.13
2023-03-20T15:23:53.242Z,100617.13
2023-03-20T15:29:05.429Z,100616.41
2023-03-20T15:34:21.472Z,100612.19
2023-03-20T15:39:29.619Z,100605.28
2023-03-20T15:44:40.787Z,100607.03
2023-03-20T15:49:54.290Z,100593.97
2023-03-20T15:55:07.778Z,100594.91
2023-03-20T16:00:22.812Z,100586.28
2023-03-20T16:05:31.967Z,100583.75
2023-03-20T16:10:38.950Z,100588.31
2023-03-20T16:15:47.991Z,100592.81
2023-03-20T16:20:58.301Z,100600.03
2023-03-20T16:26:08.085Z,100596.84
2023-03-20T16:31:22.140Z,100597.94
2023-03-20T16:36:33.687Z,100605.22
2023-03-20T16:41:42.429Z,100601.41
2023-03-20T16:47:04.489Z,100605.09
2023-03-20T16:52:16.728Z,100606.22
2023-03-20T16:57:23.255Z,100613.56
2023-03-20T17:02:38.680Z,100615.50
2023-03-20T17:07:46.076Z,100604.69
2023-03-20T17:12:53.687Z,100616.06
2023-03-20T17:18:04.652Z,100609.28
2023-03-20T17:23:16.647Z,100608.66
2023-03-20T17:28:30.408Z,100617.44
2023-03-20T17:33:38.734Z,100612.47
2023-03-20T17:38:45.879Z,100615.25
2023-03-20T17:43:53.960Z,100613.66
2023-03-20T17:49:07.050Z,100606.81
2023-03-20T17:54:15.645Z,100617.25
2023-03-20T17:59:25.318Z,100620.06
2023-03-20T18:04:35.350Z,100613.34
2023-03-20T18:09:46.083Z,100623.94
2023-03-20T18:14:56.278Z,100625.91
2023-03-20T18:20:08.748Z,100617.34
2023-03-20T18:25:18.392Z,100620.94
2023-03-20T18:30:32.554Z,100617.66
2023-03-20T18:35:49.371Z,100624.63
2023-03-20T18:41:13.329Z,100622.97
2023-03-20T18:46:31.641Z,100621.31
2023-03-20T18:51:42.930Z,100626.56
2023-03-20T18:56:55.324Z,100627.66
2023-03-20T19:02:04.369Z,100626.72
2023-03-20T19:07:16.698Z,100621.56
2023-03-20T19:12:26.585Z,100624.97
2023-03-20T19:17:45.457Z,100627.50
2023-03-20T19:22:58.268Z,100618.84
2023-03-20T19:28:37.655Z,100624.84
2023-03-20T19:33:50.807Z,100639.41
2023-03-20T19:39:04.902Z,100637.31
2023-03-20T19:44:13.555Z,100637.00
2023-03-20T19:49:30.776Z,100642.06
2023-03-20T19:55:00.241Z,100641.06
2023-03-20T20:05:49.885Z,100646.94
2023-03-20T20:11:00.860Z,100649.50
2023-03-20T20:16:14.600Z,100645.13
2023-03-20T20:27:18.237Z,100643.41
2023-03-20T20:32:31.621Z,100639.91
2023-03-20T20:43:38.931Z,100653.84
2023-03-20T20:48:46.428Z,100647.75
2023-03-20T20:53:54.767Z,100650.34
2023-03-20T20:59:04.225Z,100653.84
2023-03-20T21:04:13.995Z,100654.69
2023-03-20T21:09:22.193Z,100647.75
2023-03-20T21:14:32.111Z,100655.53
2023-03-20T21:19:45.726Z,100650.34
2023-03-20T21:25:11.121Z,100652.09
2023-03-20T21:30:22.853Z,100649.53
2023-03-20T21:35:29.808Z,100651.28
2023-03-20T21:40:36.963Z,100646.13
2023-03-20T22:02:23.492Z,100656.69
2023-03-20T22:13:51.294Z,100648.09
2023-03-20T22:30:01.677Z,100640.44
2023-03-20T22:35:47.173Z,100643.91
2023-03-20T22:46:03.409Z,100653.50
2023-03-20T22:52:26.473Z,100651.78
2023-03-20T22:57:45.502Z,100644.06
2023-03-20T23:03:06.731Z,100639.75
2023-03-20T23:08:22.786Z,100639.78
2023-03-20T23:13:48.582Z,100645.03
2023-03-20T23:18:55.037Z,100645.03
2023-03-20T23:24:03.127Z,100639.84
2023-03-20T23:29:09.918Z,100637.22
2023-03-20T23:34:18.082Z,100639.84
2023-03-20T23:39:26.328Z,100640.72
2023-03-20T23:44:32.694Z,100639.88
2023-03-20T23:49:40.176Z,100638.13
2023-03-20T23:54:48.136Z,100634.69
2023-03-20T23:59:54.463Z,100635.59
